Time;durP1;ratioP1;P1;durP2;ratioP2;P2;SDS_P1;SDS_P2;PMS_P1;PMS_P2;Temp;Humidity;BMP_temperature;BMP_pressure;BME280_temperature;BME280_humidity;BME280_pressure;Samples;Min_cycle;Max_cycle;Signal;HPM_P1;HPM_P2
2022/04/06 00:00:57;;;;;;;3.20;3.00;;;;;;;;;;5025980;28;20294;-84
2022/04/06 00:03:24;;;;;;;2.83;2.58;;;;;;;;;;5026038;28;20207;-84
2022/04/06 00:05:53;;;;;;;2.75;2.55;;;;;;;;;;5024998;28;20231;-83
2022/04/06 00:08:20;;;;;;;2.60;2.40;;;;;;;;;;5026810;28;20234;-84
2022/04/06 00:10:48;;;;;;;3.40;3.10;;;;;;;;;;5028738;28;20227;-84
2022/04/06 00:13:15;;;;;;;3.03;2.83;;;;;;;;;;5028789;28;20191;-84
2022/04/06 00:15:42;;;;;;;2.42;2.22;;;;;;;;;;5025716;28;20286;-83
2022/04/06 00:18:10;;;;;;;2.17;2.08;;;;;;;;;;5024421;28;20597;-84
2022/04/06 00:20:37;;;;;;;2.97;2.60;;;;;;;;;;5027142;28;20207;-83
2022/04/06 00:23:06;;;;;;;1.88;1.77;;;;;;;;;;5028188;28;20203;-84
2022/04/06 00:25:34;;;;;;;2.00;1.90;;;;;;;;;;5026557;28;20226;-84
2022/04/06 00:28:01;;;;;;;3.00;2.60;;;;;;;;;;5027084;28;20656;-84
2022/04/06 00:30:28;;;;;;;2.72;2.53;;;;;;;;;;5025188;28;20214;-83
2022/04/06 00:32:55;;;;;;;2.72;2.42;;;;;;;;;;5025302;28;20203;-83
2022/04/06 00:35:32;;;;;;;3.35;3.05;;;;;;;;;;5025426;28;20229;-84
2022/04/06 00:38:01;;;;;;;5.13;4.10;;;;;;;;;;5025112;28;20186;-83
2022/04/06 00:40:30;;;;;;;3.55;3.25;;;;;;;;;;5025796;28;20218;-84
2022/04/06 00:42:57;;;;;;;2.88;2.67;;;;;;;;;;5028048;28;20218;-84
2022/04/06 00:45:25;;;;;;;6.25;5.75;;;;;;;;;;5027127;28;20735;-84
2022/04/06 00:47:54;;;;;;;5.03;4.53;;;;;;;;;;5028569;28;20660;-84
2022/04/06 00:50:23;;;;;;;6.38;5.82;;;;;;;;;;5026935;28;20206;-84
2022/04/06 00:52:55;;;;;;;10.63;8.23;;;;;;;;;;5025775;28;20219;-84
2022/04/06 00:55:23;;;;;;;8.45;7.63;;;;;;;;;;5024312;28;20230;-83
2022/04/06 00:57:51;;;;;;;7.55;6.82;;;;;;;;;;5023867;28;20198;-83
2022/04/06 01:00:19;;;;;;;8.43;7.60;;;;;;;;;;5023736;28;20597;-83
2022/04/06 01:02:47;;;;;;;10.23;9.18;;;;;;;;;;5024854;28;20655;-83
2022/04/06 01:05:14;;;;;;;10.80;9.70;;;;;;;;;;5033723;28;20246;-84
2022/04/06 01:07:43;;;;;;;8.48;7.68;;;;;;;;;;5042820;28;20209;-84
2022/04/06 01:10:10;;;;;;;8.70;7.53;;;;;;;;;;5043753;28;20272;-84
2022/04/06 01:12:38;;;;;;;9.82;8.82;;;;;;;;;;5044140;28;20228;-83
2022/04/06 01:15:08;;;;;;;7.47;6.15;;;;;;;;;;5045444;28;20230;-84
2022/04/06 01:17:37;;;;;;;7.18;6.50;;;;;;;;;;5044815;28;20618;-84
2022/04/06 01:20:07;;;;;;;7.38;6.03;;;;;;;;;;5044708;28;20213;-84
2022/04/06 01:22:36;;;;;;;5.28;4.78;;;;;;;;;;5044790;28;20190;-84
2022/04/06 01:25:06;;;;;;;6.88;6.18;;;;;;;;;;5044589;28;20687;-84
2022/04/06 01:27:33;;;;;;;7.43;6.68;;;;;;;;;;5044259;28;20218;-84
2022/04/06 01:30:00;;;;;;;7.20;6.45;;;;;;;;;;5044539;28;20574;-84
2022/04/06 01:32:32;;;;;;;5.38;4.93;;;;;;;;;;5044345;28;20222;-84
2022/04/06 01:35:01;;;;;;;6.68;5.88;;;;;;;;;;5035297;28;20251;-83
2022/04/06 01:37:28;;;;;;;7.03;5.72;;;;;;;;;;5023944;28;20206;-84
2022/04/06 01:39:57;;;;;;;5.43;4.88;;;;;;;;;;5026017;28;20719;-84
2022/04/06 01:42:25;;;;;;;5.75;4.32;;;;;;;;;;5024504;28;20226;-84
2022/04/06 01:44:53;;;;;;;5.70;5.10;;;;;;;;;;5024304;28;20222;-83
2022/04/06 01:47:22;;;;;;;5.45;4.65;;;;;;;;;;5024378;28;20552;-83
2022/04/06 01:52:37;;;;;;;6.05;5.45;;;;;;;;;;5023672;28;20218;-84
2022/04/06 01:55:08;;;;;;;5.97;5.47;;;;;;;;;;5024305;28;20219;-84
2022/04/06 01:57:36;;;;;;;6.72;5.40;;;;;;;;;;5022633;28;20238;-85
2022/04/06 02:00:09;;;;;;;4.40;3.65;;;;;;;;;;5021758;28;20194;-85
2022/04/06 02:02:36;;;;;;;4.40;3.97;;;;;;;;;;5023688;28;20183;-85
2022/04/06 02:05:04;;;;;;;5.65;4.90;;;;;;;;;;5021687;28;20234;-84
2022/04/06 02:07:32;;;;;;;5.15;4.75;;;;;;;;;;5022185;28;20234;-85
2022/04/06 02:10:00;;;;;;;4.03;3.70;;;;;;;;;;5023066;28;20651;-85
2022/04/06 02:12:29;;;;;;;4.47;4.07;;;;;;;;;;5024597;28;20317;-84
2022/04/06 02:14:57;;;;;;;4.78;3.95;;;;;;;;;;5027226;28;20222;-84
2022/04/06 02:17:27;;;;;;;4.72;4.20;;;;;;;;;;5026839;28;20214;-84
2022/04/06 02:19:54;;;;;;;5.80;4.47;;;;;;;;;;5025706;28;20207;-84
2022/04/06 02:22:21;;;;;;;6.15;5.50;;;;;;;;;;5026912;28;20199;-84
2022/04/06 02:24:49;;;;;;;4.60;3.97;;;;;;;;;;5025898;28;20219;-84
2022/04/06 02:27:16;;;;;;;4.47;4.07;;;;;;;;;;5024880;28;20538;-85
2022/04/06 02:29:45;;;;;;;5.72;4.63;;;;;;;;;;5023219;28;20206;-85
2022/04/06 02:32:12;;;;;;;4.32;3.75;;;;;;;;;;5023884;28;20227;-84
2022/04/06 02:34:40;;;;;;;6.00;4.80;;;;;;;;;;5028731;28;20219;-83
2022/04/06 02:37:09;;;;;;;4.72;4.32;;;;;;;;;;5035104;28;20210;-83
2022/04/06 02:39:37;;;;;;;6.10;4.85;;;;;;;;;;5043568;28;20198;-84
2022/04/06 02:42:05;;;;;;;3.97;3.67;;;;;;;;;;5045616;28;20643;-83
2022/04/06 02:44:32;;;;;;;4.72;3.88;;;;;;;;;;5045309;28;20198;-84
2022/04/06 02:47:01;;;;;;;5.13;4.65;;;;;;;;;;5044900;28;20669;-84
2022/04/06 02:49:28;;;;;;;5.88;5.28;;;;;;;;;;5044388;28;20194;-84
2022/04/06 02:51:55;;;;;;;4.55;3.97;;;;;;;;;;5044392;28;20191;-84
2022/04/06 02:54:23;;;;;;;6.45;4.70;;;;;;;;;;5044219;28;20210;-84
2022/04/06 02:56:51;;;;;;;5.47;4.97;;;;;;;;;;5044795;28;20206;-84
2022/04/06 02:59:18;;;;;;;5.38;4.55;;;;;;;;;;5043408;28;20206;-85
2022/04/06 03:01:45;;;;;;;3.97;3.67;;;;;;;;;;5043396;28;20202;-83
2022/04/06 03:04:14;;;;;;;4.95;4.55;;;;;;;;;;5040147;28;20202;-85
2022/04/06 03:06:41;;;;;;;4.03;3.63;;;;;;;;;;5023568;28;20707;-84
2022/04/06 03:09:09;;;;;;;4.72;4.32;;;;;;;;;;5023953;28;20198;-84
2022/04/06 03:11:36;;;;;;;5.05;3.95;;;;;;;;;;5023851;28;20206;-84
2022/04/06 03:14:07;;;;;;;5.72;5.22;;;;;;;;;;5022292;28;20249;-83
2022/04/06 03:16:34;;;;;;;6.55;5.95;;;;;;;;;;5022903;28;20226;-85
2022/04/06 03:19:02;;;;;;;7.20;6.55;;;;;;;;;;5023330;28;20206;-84
2022/04/06 03:21:30;;;;;;;5.00;4.60;;;;;;;;;;5022493;28;20207;-84
2022/04/06 03:23:58;;;;;;;9.30;5.55;;;;;;;;;;5021006;28;20230;-85
2022/04/06 03:26:25;;;;;;;6.32;5.60;;;;;;;;;;5022188;28;20226;-85
2022/04/06 03:28:52;;;;;;;8.45;6.95;;;;;;;;;;5021758;28;20195;-84
2022/04/06 03:31:20;;;;;;;5.75;5.22;;;;;;;;;;5022248;28;20203;-84
2022/04/06 03:33:47;;;;;;;6.20;5.50;;;;;;;;;;5022579;28;20230;-83
2022/04/06 03:36:14;;;;;;;7.38;6.57;;;;;;;;;;5022547;28;20231;-84
2022/04/06 03:38:43;;;;;;;7.35;6.60;;;;;;;;;;5022889;28;20207;-84
2022/04/06 03:41:10;;;;;;;5.90;5.40;;;;;;;;;;5022171;28;20203;-83
2022/04/06 03:43:38;;;;;;;5.47;4.97;;;;;;;;;;5022256;28;20221;-85
2022/04/06 03:46:05;;;;;;;5.78;5.25;;;;;;;;;;5022673;28;20230;-84
2022/04/06 03:48:32;;;;;;;6.05;4.78;;;;;;;;;;5022281;28;20203;-85
2022/04/06 03:51:00;;;;;;;4.95;4.47;;;;;;;;;;5022472;28;20195;-84
2022/04/06 03:53:27;;;;;;;7.20;6.50;;;;;;;;;;5022766;28;20265;-84
2022/04/06 03:55:56;;;;;;;6.38;5.70;;;;;;;;;;5023354;28;20223;-83
2022/04/06 03:58:23;;;;;;;6.38;5.75;;;;;;;;;;5022100;28;20207;-84
2022/04/06 04:00:53;;;;;;;6.82;6.13;;;;;;;;;;5021863;28;20206;-85
2022/04/06 04:03:20;;;;;;;7.55;6.75;;;;;;;;;;5020893;28;20199;-84
2022/04/06 04:05:47;;;;;;;6.78;6.13;;;;;;;;;;5020723;28;20707;-85
2022/04/06 04:08:14;;;;;;;5.47;4.82;;;;;;;;;;5020661;28;20207;-83
2022/04/06 04:10:42;;;;;;;6.13;5.53;;;;;;;;;;5019547;28;20221;-85
2022/04/06 04:13:11;;;;;;;6.20;4.75;;;;;;;;;;5020434;28;20226;-84
2022/04/06 04:15:38;;;;;;;7.45;5.25;;;;;;;;;;5021493;28;20887;-84
2022/04/06 04:18:06;;;;;;;7.10;4.82;;;;;;;;;;5019701;28;20566;-84
2022/04/06 04:20:33;;;;;;;6.55;5.43;;;;;;;;;;5021351;28;20265;-84
2022/04/06 04:23:00;;;;;;;6.95;6.25;;;;;;;;;;5019146;28;20443;-84
2022/04/06 04:25:28;;;;;;;8.88;5.80;;;;;;;;;;5019337;28;20238;-84
2022/04/06 04:27:55;;;;;;;5.32;4.75;;;;;;;;;;5020164;28;20551;-83
2022/04/06 04:30:24;;;;;;;5.32;4.88;;;;;;;;;;5021246;28;20698;-85
2022/04/06 04:32:51;;;;;;;5.75;4.63;;;;;;;;;;5021181;28;20206;-84
2022/04/06 04:35:18;;;;;;;5.60;4.57;;;;;;;;;;5020563;28;20230;-84
2022/04/06 04:37:46;;;;;;;4.68;4.28;;;;;;;;;;5020619;28;20231;-84
2022/04/06 04:40:16;;;;;;;8.82;6.07;;;;;;;;;;5018348;28;20203;-84
2022/04/06 04:42:43;;;;;;;7.32;5.65;;;;;;;;;;5019096;28;20187;-84
2022/04/06 04:45:11;;;;;;;6.72;4.80;;;;;;;;;;5021126;28;20223;-84
2022/04/06 04:47:41;;;;;;;4.90;4.22;;;;;;;;;;5022624;28;20207;-85
2022/04/06 04:50:09;;;;;;;7.05;5.30;;;;;;;;;;5015672;28;20608;-87
2022/04/06 04:52:37;;;;;;;5.57;5.00;;;;;;;;;;5014785;28;20203;-87
2022/04/06 04:55:05;;;;;;;5.28;4.70;;;;;;;;;;5021899;28;20227;-84
2022/04/06 04:57:32;;;;;;;4.60;3.83;;;;;;;;;;5019654;28;20218;-84
2022/04/06 04:59:59;;;;;;;5.65;5.15;;;;;;;;;;5017423;28;20203;-88
2022/04/06 05:02:26;;;;;;;8.98;5.70;;;;;;;;;;5015468;28;20199;-86
2022/04/06 05:04:55;;;;;;;4.65;4.22;;;;;;;;;;5017870;28;20231;-84
2022/04/06 05:07:22;;;;;;;5.30;4.03;;;;;;;;;;5016192;28;20210;-85
2022/04/06 05:09:50;;;;;;;3.58;3.28;;;;;;;;;;5015440;28;20206;-84
2022/04/06 05:12:18;;;;;;;4.93;3.72;;;;;;;;;;5015919;28;20257;-85
2022/04/06 05:14:45;;;;;;;5.20;3.90;;;;;;;;;;5015605;28;20231;-84
2022/04/06 05:17:12;;;;;;;4.88;4.20;;;;;;;;;;5015334;28;20203;-84
2022/04/06 05:19:39;;;;;;;6.70;4.13;;;;;;;;;;5014047;28;20203;-84
2022/04/06 05:22:09;;;;;;;8.55;4.25;;;;;;;;;;5014923;28;20565;-85
2022/04/06 05:24:36;;;;;;;3.72;3.33;;;;;;;;;;5013601;28;20278;-85
2022/04/06 05:27:04;;;;;;;4.57;3.38;;;;;;;;;;5013923;28;20206;-84
2022/04/06 05:29:32;;;;;;;3.65;3.30;;;;;;;;;;5014468;28;20237;-85
2022/04/06 05:31:59;;;;;;;3.75;3.42;;;;;;;;;;5014434;28;20229;-84
2022/04/06 05:34:26;;;;;;;4.78;3.60;;;;;;;;;;5015811;28;20227;-84
2022/04/06 05:36:54;;;;;;;5.43;3.55;;;;;;;;;;5015722;28;20603;-83
2022/04/06 05:39:22;;;;;;;3.80;3.28;;;;;;;;;;5015193;28;20207;-84
2022/04/06 05:41:50;;;;;;;4.93;4.38;;;;;;;;;;5015207;28;20199;-85
2022/04/06 05:44:17;;;;;;;5.90;4.20;;;;;;;;;;5015334;28;20199;-84
2022/04/06 05:46:45;;;;;;;5.45;4.00;;;;;;;;;;5014554;28;20230;-84
2022/04/06 05:49:12;;;;;;;3.17;2.90;;;;;;;;;;5015398;28;20206;-84
2022/04/06 05:51:39;;;;;;;7.18;3.85;;;;;;;;;;5014610;28;20195;-85
2022/04/06 05:54:07;;;;;;;4.80;3.45;;;;;;;;;;5015812;28;20229;-83
2022/04/06 05:56:35;;;;;;;3.92;3.05;;;;;;;;;;5014821;28;20237;-85
2022/04/06 05:59:03;;;;;;;3.60;2.90;;;;;;;;;;5015844;28;20193;-84
2022/04/06 06:01:30;;;;;;;4.72;2.72;;;;;;;;;;5015744;28;20206;-84
2022/04/06 06:03:58;;;;;;;3.65;2.95;;;;;;;;;;5014244;28;20543;-85
2022/04/06 06:06:25;;;;;;;3.95;2.40;;;;;;;;;;5013781;28;20259;-83
2022/04/06 06:08:52;;;;;;;5.10;2.72;;;;;;;;;;5014725;28;20209;-84
2022/04/06 06:11:19;;;;;;;3.30;3.00;;;;;;;;;;5016451;28;20199;-83
2022/04/06 06:13:48;;;;;;;4.70;3.15;;;;;;;;;;5018036;28;20617;-83
2022/04/06 06:16:15;;;;;;;3.50;3.20;;;;;;;;;;5015934;28;20227;-84
2022/04/06 06:18:45;;;;;;;7.85;2.92;;;;;;;;;;5016150;28;20211;-85
2022/04/06 06:21:12;;;;;;;2.80;2.60;;;;;;;;;;5016198;28;20229;-84
2022/04/06 06:23:39;;;;;;;3.45;3.15;;;;;;;;;;5015763;28;20286;-85
2022/04/06 06:26:07;;;;;;;4.13;2.95;;;;;;;;;;5015418;28;20302;-85
2022/04/06 06:28:34;;;;;;;2.53;2.33;;;;;;;;;;5016353;28;20191;-85
2022/04/06 06:31:02;;;;;;;10.23;3.72;;;;;;;;;;5015971;28;20203;-84
2022/04/06 06:33:30;;;;;;;2.55;2.28;;;;;;;;;;5016340;28;20203;-84
2022/04/06 06:35:57;;;;;;;3.00;2.67;;;;;;;;;;5015669;28;20590;-83
2022/04/06 06:38:33;;;;;;;2.80;2.60;;;;;;;;;;5016455;28;20570;-84
2022/04/06 06:41:01;;;;;;;3.88;2.72;;;;;;;;;;5016678;28;20175;-85
2022/04/06 06:43:28;;;;;;;2.80;2.58;;;;;;;;;;5014734;28;20207;-85
2022/04/06 06:45:56;;;;;;;3.00;2.40;;;;;;;;;;5013056;28;20225;-86
2022/04/06 06:48:24;;;;;;;3.30;2.45;;;;;;;;;;5013997;28;20207;-86
2022/04/06 06:50:52;;;;;;;2.97;2.70;;;;;;;;;;5013922;28;20730;-85
2022/04/06 06:53:19;;;;;;;6.20;3.42;;;;;;;;;;5013758;28;20211;-85
2022/04/06 06:55:46;;;;;;;2.40;2.10;;;;;;;;;;5014189;28;20569;-86
2022/04/06 06:58:14;;;;;;;3.25;2.17;;;;;;;;;;5013482;28;20206;-86
2022/04/06 07:00:41;;;;;;;5.10;2.85;;;;;;;;;;5016996;28;20199;-86
2022/04/06 07:03:08;;;;;;;2.90;2.30;;;;;;;;;;5017155;28;20204;-86
2022/04/06 07:05:38;;;;;;;5.53;3.45;;;;;;;;;;5016707;28;20231;-85
2022/04/06 07:08:06;;;;;;;2.63;2.42;;;;;;;;;;5017703;28;20202;-85
2022/04/06 07:10:34;;;;;;;2.28;2.08;;;;;;;;;;5017836;28;20213;-85
2022/04/06 07:13:01;;;;;;;2.70;2.50;;;;;;;;;;5017676;28;20575;-85
2022/04/06 07:15:28;;;;;;;3.25;2.35;;;;;;;;;;5016693;28;20230;-85
2022/04/06 07:17:57;;;;;;;4.63;3.20;;;;;;;;;;5016741;28;20290;-86
2022/04/06 07:20:27;;;;;;;2.33;2.17;;;;;;;;;;5017005;28;20210;-85
2022/04/06 07:22:55;;;;;;;2.50;1.80;;;;;;;;;;5017203;28;20574;-85
2022/04/06 07:25:23;;;;;;;2.53;1.98;;;;;;;;;;5016364;28;20223;-85
2022/04/06 07:27:50;;;;;;;2.50;2.30;;;;;;;;;;5016734;28;20257;-85
2022/04/06 07:30:17;;;;;;;2.97;2.78;;;;;;;;;;5015490;28;20207;-85
2022/04/06 07:32:45;;;;;;;5.65;2.80;;;;;;;;;;5015916;28;20214;-86
2022/04/06 07:35:12;;;;;;;3.03;2.50;;;;;;;;;;5015288;28;20227;-85
2022/04/06 07:37:41;;;;;;;3.45;2.53;;;;;;;;;;5016202;28;20202;-85
2022/04/06 07:40:11;;;;;;;4.05;2.88;;;;;;;;;;5016433;28;20199;-85
2022/04/06 07:42:40;;;;;;;3.10;2.80;;;;;;;;;;5015555;28;20195;-86
2022/04/06 07:45:10;;;;;;;3.17;2.53;;;;;;;;;;5015748;28;20229;-86
2022/04/06 07:47:38;;;;;;;3.20;2.80;;;;;;;;;;5016306;28;20203;-85
2022/04/06 07:50:07;;;;;;;3.08;2.40;;;;;;;;;;5019447;28;20293;-85
2022/04/06 07:52:35;;;;;;;4.22;2.95;;;;;;;;;;5017782;28;20575;-85
2022/04/06 07:55:02;;;;;;;2.50;2.20;;;;;;;;;;5015129;28;20223;-84
2022/04/06 07:57:31;;;;;;;2.88;2.58;;;;;;;;;;5016261;28;20231;-85
2022/04/06 07:59:58;;;;;;;2.55;2.35;;;;;;;;;;5016170;28;20198;-86
2022/04/06 08:02:26;;;;;;;2.53;2.33;;;;;;;;;;5016276;28;20680;-85
2022/04/06 08:04:53;;;;;;;7.72;2.78;;;;;;;;;;5016402;28;20704;-85
2022/04/06 08:07:21;;;;;;;2.75;2.53;;;;;;;;;;5019599;28;20671;-85
2022/04/06 08:09:48;;;;;;;2.30;2.10;;;;;;;;;;5019784;28;20191;-84
2022/04/06 08:12:15;;;;;;;2.30;2.10;;;;;;;;;;5019712;28;20565;-85
2022/04/06 08:14:44;;;;;;;1.90;1.80;;;;;;;;;;5020500;28;20215;-85
2022/04/06 08:17:11;;;;;;;2.90;2.70;;;;;;;;;;5019915;28;20234;-85
2022/04/06 08:19:38;;;;;;;2.60;2.40;;;;;;;;;;5019420;28;20652;-85
2022/04/06 08:22:06;;;;;;;3.03;1.95;;;;;;;;;;5016351;28;20656;-85
2022/04/06 08:24:33;;;;;;;3.55;2.58;;;;;;;;;;5017306;28;20206;-85
2022/04/06 08:27:01;;;;;;;2.10;1.85;;;;;;;;;;5016576;28;20199;-85
2022/04/06 08:29:28;;;;;;;2.35;2.15;;;;;;;;;;5015270;28;20550;-85
2022/04/06 08:31:56;;;;;;;2.35;2.15;;;;;;;;;;5015176;28;20203;-84
2022/04/06 08:34:24;;;;;;;2.40;2.20;;;;;;;;;;5016186;28;20210;-85
2022/04/06 08:36:51;;;;;;;2.05;1.85;;;;;;;;;;5015364;28;20227;-85
2022/04/06 08:39:18;;;;;;;2.58;2.10;;;;;;;;;;5016569;28;20204;-84
2022/04/06 08:41:46;;;;;;;2.90;2.15;;;;;;;;;;5016051;28;20244;-86
2022/04/06 08:44:16;;;;;;;2.20;1.95;;;;;;;;;;5014194;28;20191;-86
2022/04/06 08:46:46;;;;;;;3.40;3.08;;;;;;;;;;5015590;28;20201;-86
2022/04/06 08:49:16;;;;;;;2.25;2.05;;;;;;;;;;5014537;28;20188;-87
2022/04/06 08:51:45;;;;;;;2.72;2.53;;;;;;;;;;5013538;28;20206;-87
2022/04/06 08:54:12;;;;;;;1.85;1.30;;;;;;;;;;5013423;28;20202;-86
2022/04/06 08:56:39;;;;;;;1.55;1.38;;;;;;;;;;5014018;28;20227;-86
2022/04/06 08:59:07;;;;;;;2.05;1.70;;;;;;;;;;5013483;28;20210;-86
2022/04/06 09:01:34;;;;;;;1.85;1.75;;;;;;;;;;5013460;28;20228;-85
2022/04/06 09:04:02;;;;;;;2.88;1.50;;;;;;;;;;4997233;28;20234;-87
2022/04/06 09:06:39;;;;;;;4.90;2.08;;;;;;;;;;4993842;28;20250;-84
2022/04/06 09:09:06;;;;;;;5.68;2.13;;;;;;;;;;4993810;28;20195;-84
2022/04/06 09:11:42;;;;;;;1.50;1.40;;;;;;;;;;4993749;28;20712;-86
2022/04/06 09:14:10;;;;;;;2.35;1.73;;;;;;;;;;4996191;28;20195;-85
2022/04/06 09:16:37;;;;;;;3.17;1.58;;;;;;;;;;4999165;28;20230;-85
2022/04/06 09:19:16;;;;;;;1.98;1.75;;;;;;;;;;4993546;28;20207;-84
2022/04/06 09:21:46;;;;;;;1.50;1.40;;;;;;;;;;4992986;28;20582;-85
2022/04/06 09:24:17;;;;;;;1.67;1.23;;;;;;;;;;4999802;28;20687;-85
2022/04/06 09:26:48;;;;;;;1.67;1.58;;;;;;;;;;4997472;28;20211;-85
2022/04/06 09:29:20;;;;;;;2.85;1.55;;;;;;;;;;4993308;28;20194;-85
2022/04/06 09:31:49;;;;;;;2.15;1.45;;;;;;;;;;5005599;28;20210;-84
2022/04/06 09:34:17;;;;;;;1.70;1.60;;;;;;;;;;5013228;28;20552;-84
2022/04/06 09:36:45;;;;;;;1.95;1.27;;;;;;;;;;5012776;28;20230;-84
2022/04/06 09:39:13;;;;;;;1.92;1.50;;;;;;;;;;5013123;28;20206;-85
2022/04/06 09:42:00;;;;;;;3.55;1.50;;;;;;;;;;5013555;28;20207;-84
2022/04/06 09:50:20;;;;;;;1.70;1.60;;;;;;;;;;5015394;28;20557;-85
2022/04/06 09:52:52;;;;;;;1.65;1.25;;;;;;;;;;5016319;28;20210;-84
2022/04/06 09:55:22;;;;;;;1.40;1.30;;;;;;;;;;5016218;28;20227;-85
2022/04/06 09:57:52;;;;;;;2.03;1.20;;;;;;;;;;5016398;28;20566;-85
2022/04/06 10:00:21;;;;;;;1.55;1.45;;;;;;;;;;5015752;28;20253;-84
2022/04/06 10:02:56;;;;;;;0.98;0.98;;;;;;;;;;4996725;28;20210;-85
2022/04/06 10:05:25;;;;;;;1.33;1.30;;;;;;;;;;4996394;28;20229;-84
2022/04/06 10:07:55;;;;;;;1.25;1.17;;;;;;;;;;4995136;28;20200;-84
2022/04/06 10:10:23;;;;;;;1.40;1.30;;;;;;;;;;4995346;28;20598;-86
2022/04/06 10:12:51;;;;;;;2.38;2.17;;;;;;;;;;4993954;28;20214;-86
2022/04/06 10:15:19;;;;;;;1.17;1.10;;;;;;;;;;4994346;28;20222;-85
2022/04/06 10:17:46;;;;;;;2.10;1.20;;;;;;;;;;4993992;28;20230;-85
2022/04/06 10:20:21;;;;;;;4.47;1.20;;;;;;;;;;4994878;28;20200;-85
2022/04/06 10:23:02;;;;;;;1.38;1.20;;;;;;;;;;4994148;28;20211;-85
2022/04/06 10:25:44;;;;;;;1.67;0.98;;;;;;;;;;4994785;28;20220;-85
2022/04/06 10:28:12;;;;;;;1.80;1.70;;;;;;;;;;4994814;28;20563;-84
2022/04/06 10:30:40;;;;;;;1.33;1.08;;;;;;;;;;4997687;28;20215;-85
2022/04/06 10:33:21;;;;;;;2.08;1.02;;;;;;;;;;5015597;28;20655;-85
2022/04/06 10:35:49;;;;;;;1.25;1.15;;;;;;;;;;5017750;28;20223;-86
2022/04/06 10:38:22;;;;;;;1.00;1.00;;;;;;;;;;5017359;28;20329;-84
2022/04/06 10:41:08;;;;;;;1.42;1.33;;;;;;;;;;5019364;28;20198;-84
2022/04/06 10:43:55;;;;;;;2.05;1.15;;;;;;;;;;5018272;28;20622;-85
2022/04/06 10:46:38;;;;;;;1.25;1.10;;;;;;;;;;5016660;28;20222;-85
2022/04/06 10:49:16;;;;;;;1.02;0.90;;;;;;;;;;5017249;28;20198;-86
2022/04/06 10:51:45;;;;;;;4.00;1.73;;;;;;;;;;5017547;28;20574;-86
2022/04/06 10:54:42;;;;;;;0.93;0.93;;;;;;;;;;5016628;28;20203;-86
2022/04/06 10:57:10;;;;;;;1.20;1.10;;;;;;;;;;5016929;28;20583;-85
2022/04/06 10:59:37;;;;;;;2.75;1.30;;;;;;;;;;5016222;28;20203;-86
2022/04/06 11:02:25;;;;;;;1.40;1.30;;;;;;;;;;5016318;28;20230;-85
2022/04/06 11:04:53;;;;;;;1.45;1.13;;;;;;;;;;5027210;22;20227;-85
2022/04/06 11:10:25;;;;;;;2.90;1.45;;;;;;;;;;5055114;28;20224;-84
2022/04/06 11:12:59;;;;;;;0.98;0.98;;;;;;;;;;5055210;28;20206;-84
2022/04/06 11:15:41;;;;;;;1.30;1.20;;;;;;;;;;5054744;28;20719;-85
2022/04/06 11:18:47;;;;;;;1.33;0.93;;;;;;;;;;5054810;28;20228;-84
2022/04/06 11:21:15;;;;;;;2.33;1.17;;;;;;;;;;5056352;28;20297;-84
2022/04/06 11:23:42;;;;;;;1.20;1.10;;;;;;;;;;5055024;28;20197;-85
2022/04/06 11:26:11;;;;;;;1.38;1.30;;;;;;;;;;5054768;28;20206;-85
2022/04/06 11:28:38;;;;;;;1.73;1.63;;;;;;;;;;5055014;28;20263;-85
2022/04/06 11:31:06;;;;;;;2.47;1.10;;;;;;;;;;5054617;28;20232;-85
2022/04/06 11:33:40;;;;;;;1.70;1.20;;;;;;;;;;5054900;28;20218;-85
2022/04/06 11:36:16;;;;;;;1.10;1.10;;;;;;;;;;5054619;28;20200;-85
2022/04/06 11:38:43;;;;;;;1.45;1.20;;;;;;;;;;5054342;28;20221;-84
2022/04/06 11:41:12;;;;;;;1.48;1.38;;;;;;;;;;5054723;28;20621;-85
2022/04/06 11:43:42;;;;;;;0.82;0.82;;;;;;;;;;5054525;28;20576;-84
2022/04/06 11:46:09;;;;;;;1.33;1.23;;;;;;;;;;5053795;28;20201;-84
2022/04/06 11:48:40;;;;;;;2.30;1.75;;;;;;;;;;5054522;28;20204;-84
2022/04/06 11:51:08;;;;;;;3.03;1.55;;;;;;;;;;5054157;28;20221;-85
2022/04/06 11:53:36;;;;;;;1.58;1.10;;;;;;;;;;5054198;28;20247;-84
2022/04/06 11:56:04;;;;;;;2.25;1.63;;;;;;;;;;5054002;28;20669;-85
2022/04/06 11:58:36;;;;;;;2.10;1.90;;;;;;;;;;5055095;28;20217;-84
2022/04/06 12:01:06;;;;;;;1.17;1.05;;;;;;;;;;5054255;28;20236;-85
2022/04/06 12:03:35;;;;;;;1.17;1.08;;;;;;;;;;5053824;28;20209;-84
2022/04/06 12:06:03;;;;;;;2.45;1.50;;;;;;;;;;5053998;28;20558;-84
2022/04/06 12:08:32;;;;;;;1.50;1.35;;;;;;;;;;5054244;28;20323;-83
2022/04/06 12:11:00;;;;;;;3.40;1.40;;;;;;;;;;5053960;28;20217;-85
2022/04/06 12:13:30;;;;;;;2.72;1.85;;;;;;;;;;5053554;28;20197;-84
2022/04/06 12:16:00;;;;;;;2.30;1.50;;;;;;;;;;5054396;28;20281;-84
2022/04/06 12:18:29;;;;;;;3.20;1.38;;;;;;;;;;5053541;28;20221;-84
2022/04/06 12:20:56;;;;;;;2.40;1.45;;;;;;;;;;5054661;28;20218;-84
2022/04/06 12:23:25;;;;;;;2.42;2.17;;;;;;;;;;5053421;28;20259;-84
2022/04/06 12:25:56;;;;;;;1.02;0.95;;;;;;;;;;5054097;28;20313;-83
2022/04/06 12:28:25;;;;;;;1.65;1.55;;;;;;;;;;5054126;28;20224;-83
2022/04/06 12:30:55;;;;;;;1.20;1.10;;;;;;;;;;5053461;28;20230;-83
2022/04/06 12:33:42;;;;;;;1.92;1.20;;;;;;;;;;5054104;28;20201;-83
2022/04/06 12:36:16;;;;;;;1.40;1.30;;;;;;;;;;5053833;28;20204;-84
2022/04/06 12:38:56;;;;;;;3.50;1.83;;;;;;;;;;5053660;28;20275;-84
2022/04/06 12:41:25;;;;;;;2.05;1.50;;;;;;;;;;5053572;28;20201;-84
2022/04/06 12:43:53;;;;;;;2.13;1.92;;;;;;;;;;5053315;28;20198;-83
2022/04/06 12:46:43;;;;;;;1.20;1.20;;;;;;;;;;5053510;28;20636;-84
2022/04/06 12:49:32;;;;;;;3.28;1.25;;;;;;;;;;5052884;28;20226;-85
2022/04/06 12:52:13;;;;;;;1.20;1.10;;;;;;;;;;5052740;28;20645;-85
2022/04/06 12:54:42;;;;;;;1.35;1.23;;;;;;;;;;5053141;28;20216;-84
2022/04/06 12:57:13;;;;;;;1.55;1.42;;;;;;;;;;5051644;28;20201;-85
2022/04/06 12:59:43;;;;;;;2.15;1.20;;;;;;;;;;5054475;28;20308;-84
2022/04/06 13:02:22;;;;;;;1.10;1.08;;;;;;;;;;5056061;28;20320;-84
2022/04/06 13:04:51;;;;;;;2.92;1.13;;;;;;;;;;5061150;28;20197;-83
2022/04/06 13:07:19;;;;;;;2.13;1.50;;;;;;;;;;5057088;28;20276;-84
2022/04/06 13:09:52;;;;;;;1.27;1.17;;;;;;;;;;5061737;28;20218;-84
2022/04/06 13:12:21;;;;;;;1.23;1.08;;;;;;;;;;5056774;28;20686;-84
2022/04/06 13:14:49;;;;;;;2.10;1.10;;;;;;;;;;5055554;28;20201;-85
2022/04/06 13:17:17;;;;;;;0.90;0.90;;;;;;;;;;5055070;28;20233;-85
2022/04/06 13:19:44;;;;;;;2.53;0.90;;;;;;;;;;5052972;28;20252;-85
2022/04/06 13:22:14;;;;;;;1.63;1.00;;;;;;;;;;5054399;28;20201;-85
2022/04/06 13:24:41;;;;;;;1.48;1.20;;;;;;;;;;5053958;28;20642;-86
2022/04/06 13:27:09;;;;;;;0.90;0.90;;;;;;;;;;5053947;28;20212;-85
2022/04/06 13:29:37;;;;;;;1.08;1.02;;;;;;;;;;5054066;28;20213;-84
2022/04/06 13:32:05;;;;;;;1.60;1.27;;;;;;;;;;5051880;28;20205;-85
2022/04/06 13:34:33;;;;;;;4.30;1.08;;;;;;;;;;5052476;28;20201;-85
2022/04/06 13:37:01;;;;;;;1.00;1.00;;;;;;;;;;5053427;28;20202;-85
2022/04/06 13:39:30;;;;;;;1.25;1.10;;;;;;;;;;5053093;28;20232;-85
2022/04/06 13:41:59;;;;;;;1.85;1.17;;;;;;;;;;5051959;28;20197;-85
2022/04/06 13:44:30;;;;;;;1.48;1.20;;;;;;;;;;5052482;28;20340;-85
2022/04/06 13:46:59;;;;;;;0.98;0.98;;;;;;;;;;5052471;28;20620;-85
2022/04/06 13:49:26;;;;;;;0.95;0.95;;;;;;;;;;5052312;28;20226;-85
2022/04/06 13:51:55;;;;;;;1.08;0.90;;;;;;;;;;5052711;28;20202;-84
2022/04/06 13:54:23;;;;;;;1.10;1.00;;;;;;;;;;5054071;28;20212;-86
2022/04/06 13:56:53;;;;;;;1.30;1.20;;;;;;;;;;5052774;28;20201;-85
2022/04/06 13:59:21;;;;;;;0.77;0.77;;;;;;;;;;5052091;28;20222;-85
2022/04/06 14:01:49;;;;;;;1.27;1.17;;;;;;;;;;5051553;28;20205;-85
2022/04/06 14:04:17;;;;;;;1.98;1.20;;;;;;;;;;5052247;28;20197;-85
2022/04/06 14:06:45;;;;;;;1.85;1.10;;;;;;;;;;5051743;28;20221;-85
2022/04/06 14:09:12;;;;;;;1.27;1.23;;;;;;;;;;5055056;28;20267;-85
2022/04/06 14:11:42;;;;;;;1.10;1.00;;;;;;;;;;5057494;28;20210;-85
2022/04/06 14:14:11;;;;;;;1.15;0.90;;;;;;;;;;5056182;28;20737;-85
2022/04/06 14:16:41;;;;;;;1.02;1.00;;;;;;;;;;5055767;28;20259;-85
2022/04/06 14:19:09;;;;;;;0.80;0.80;;;;;;;;;;5055999;28;20232;-86
2022/04/06 14:21:37;;;;;;;1.05;0.90;;;;;;;;;;5056186;28;20665;-84
2022/04/06 14:24:08;;;;;;;1.13;1.02;;;;;;;;;;5056187;28;20212;-85
2022/04/06 14:26:37;;;;;;;1.02;0.93;;;;;;;;;;5055501;28;20209;-85
2022/04/06 14:29:04;;;;;;;1.50;1.00;;;;;;;;;;5056781;28;20189;-85
2022/04/06 14:31:33;;;;;;;1.23;1.05;;;;;;;;;;5058321;28;20237;-86
2022/04/06 14:34:00;;;;;;;0.90;0.90;;;;;;;;;;5057618;28;20590;-84
2022/04/06 14:36:27;;;;;;;1.42;1.33;;;;;;;;;;5058086;28;20662;-85
2022/04/06 14:38:55;;;;;;;3.15;1.00;;;;;;;;;;5057192;28;20205;-85
2022/04/06 14:41:22;;;;;;;2.08;1.10;;;;;;;;;;5057977;28;20205;-85
2022/04/06 14:43:50;;;;;;;1.58;1.00;;;;;;;;;;5057553;28;20630;-85
2022/04/06 14:46:17;;;;;;;1.65;1.15;;;;;;;;;;5058046;28;20201;-84
2022/04/06 14:48:46;;;;;;;1.20;1.10;;;;;;;;;;5057233;28;20692;-84
2022/04/06 14:51:14;;;;;;;1.35;1.25;;;;;;;;;;5058473;28;20197;-84
2022/04/06 14:53:41;;;;;;;1.45;1.10;;;;;;;;;;5056384;28;20229;-84
2022/04/06 14:56:09;;;;;;;0.98;0.98;;;;;;;;;;5057186;28;20666;-85
2022/04/06 14:58:36;;;;;;;1.75;1.17;;;;;;;;;;5057687;28;20296;-85
2022/04/06 15:01:03;;;;;;;1.00;1.00;;;;;;;;;;5057074;28;20233;-87
2022/04/06 15:03:31;;;;;;;1.00;1.00;;;;;;;;;;5055221;28;20285;-88
2022/04/06 15:05:59;;;;;;;2.83;1.75;;;;;;;;;;5057994;28;20202;-86